createdAt,value
2022-07-26T00:00:43.893Z,4.75
2022-07-26T00:03:10.840Z,4.07
2022-07-26T00:05:38.812Z,3.65
2022-07-26T00:08:13.267Z,4.45
2022-07-26T00:10:49.725Z,4.57
2022-07-26T00:13:18.016Z,3.85
2022-07-26T00:15:46.234Z,5.53
2022-07-26T00:18:13.494Z,3.93
2022-07-26T00:20:41.462Z,3.72
2022-07-26T00:23:08.552Z,4.55
2022-07-26T00:25:35.756Z,4.18
2022-07-26T00:28:02.751Z,4.15
2022-07-26T00:30:29.768Z,3.42
2022-07-26T00:32:56.744Z,4.45
2022-07-26T00:35:23.869Z,5.00
2022-07-26T00:37:51.331Z,4.25
2022-07-26T00:40:18.474Z,4.75
2022-07-26T00:42:45.598Z,4.20
2022-07-26T00:45:14.512Z,4.18
2022-07-26T00:47:41.486Z,4.13
2022-07-26T00:50:12.073Z,4.30
2022-07-26T00:52:39.307Z,4.90
2022-07-26T00:55:07.578Z,5.35
2022-07-26T00:57:35.980Z,4.35
2022-07-26T01:00:07.217Z,4.85
2022-07-26T01:02:34.180Z,4.57
2022-07-26T01:05:01.615Z,4.93
2022-07-26T01:07:29.810Z,4.90
2022-07-26T01:09:57.096Z,4.65
2022-07-26T01:12:24.085Z,5.00
2022-07-26T01:14:51.051Z,5.22
2022-07-26T01:17:18.008Z,5.22
2022-07-26T01:19:44.942Z,5.95
2022-07-26T01:22:14.557Z,5.90
2022-07-26T01:24:42.657Z,6.07
2022-07-26T01:27:09.632Z,5.90
2022-07-26T01:29:36.726Z,5.03
2022-07-26T01:32:05.034Z,5.30
2022-07-26T01:34:32.623Z,5.20
2022-07-26T01:36:59.589Z,5.35
2022-07-26T01:39:26.833Z,6.32
2022-07-26T01:41:56.877Z,5.57
2022-07-26T01:44:24.013Z,5.85
2022-07-26T01:46:50.912Z,6.15
2022-07-26T01:49:18.011Z,5.07
2022-07-26T01:51:44.998Z,5.53
2022-07-26T01:54:12.306Z,6.00
2022-07-26T01:56:39.540Z,5.28
2022-07-26T01:59:06.409Z,5.72
2022-07-26T02:01:39.304Z,5.97
2022-07-26T02:04:09.001Z,5.25
2022-07-26T02:09:05.276Z,5.18
2022-07-26T02:11:34.673Z,5.60
2022-07-26T02:14:03.273Z,6.32
2022-07-26T02:16:30.136Z,5.65
2022-07-26T02:18:56.995Z,3.80
2022-07-26T02:21:23.818Z,5.68
2022-07-26T02:23:50.678Z,5.40
2022-07-26T02:26:17.521Z,5.50
2022-07-26T02:28:44.380Z,5.80
2022-07-26T02:31:11.809Z,4.32
2022-07-26T02:33:42.621Z,5.30
2022-07-26T02:36:09.517Z,6.80
2022-07-26T02:38:36.443Z,6.20
2022-07-26T02:41:03.550Z,5.85
2022-07-26T02:43:32.324Z,7.20
2022-07-26T02:46:02.151Z,4.85
2022-07-26T02:48:30.949Z,6.20
2022-07-26T02:50:57.945Z,5.95
2022-07-26T02:53:24.786Z,6.70
2022-07-26T02:55:51.760Z,4.80
2022-07-26T02:58:21.472Z,6.82
2022-07-26T03:00:48.744Z,5.20
2022-07-26T03:03:15.933Z,6.80
2022-07-26T03:05:42.874Z,6.25
2022-07-26T03:08:09.886Z,6.28
2022-07-26T03:10:36.760Z,6.78
2022-07-26T03:13:03.680Z,6.35
2022-07-26T03:15:30.922Z,6.57
2022-07-26T03:17:57.936Z,7.10
2022-07-26T03:20:24.930Z,6.75
2022-07-26T03:22:51.810Z,6.72
2022-07-26T03:25:18.733Z,6.50
2022-07-26T03:27:45.729Z,6.18
2022-07-26T03:30:13.432Z,4.93
2022-07-26T03:32:40.443Z,6.47
2022-07-26T03:35:08.104Z,5.90
2022-07-26T03:37:45.819Z,5.65
2022-07-26T03:40:15.477Z,6.72
2022-07-26T03:42:42.549Z,6.70
2022-07-26T03:45:09.878Z,6.60
2022-07-26T03:47:37.365Z,5.72
2022-07-26T03:50:06.130Z,6.15
2022-07-26T03:52:33.064Z,6.00
2022-07-26T03:55:00.110Z,6.60
2022-07-26T03:57:28.168Z,5.20
2022-07-26T03:59:55.880Z,5.77
2022-07-26T04:02:22.976Z,6.05
2022-07-26T04:04:49.810Z,6.40
2022-07-26T04:07:16.738Z,6.70
2022-07-26T04:09:44.045Z,6.93
2022-07-26T04:12:10.904Z,6.40
2022-07-26T04:14:38.657Z,7.28
2022-07-26T04:17:05.654Z,7.18
2022-07-26T04:19:32.597Z,6.90
2022-07-26T04:22:05.199Z,6.43
2022-07-26T04:24:32.122Z,6.15
2022-07-26T04:26:58.961Z,7.80
2022-07-26T04:29:25.804Z,7.15
2022-07-26T04:31:52.657Z,8.10
2022-07-26T04:34:19.522Z,7.57
2022-07-26T04:36:46.363Z,8.57
2022-07-26T04:39:13.234Z,6.97
2022-07-26T04:41:40.088Z,6.75
2022-07-26T04:44:07.267Z,3.50
2022-07-26T04:46:34.386Z,3.80
2022-07-26T04:49:01.467Z,4.00
2022-07-26T04:51:28.451Z,2.85
2022-07-26T04:53:55.273Z,3.45
2022-07-26T04:56:22.141Z,3.53
2022-07-26T04:58:49.000Z,3.95
2022-07-26T05:01:16.036Z,4.35
2022-07-26T05:03:42.974Z,3.97
2022-07-26T05:06:09.837Z,3.38
2022-07-26T05:08:36.710Z,2.70
2022-07-26T05:11:04.290Z,3.13
2022-07-26T05:13:31.292Z,2.83
2022-07-26T05:15:59.734Z,2.55
2022-07-26T05:18:27.312Z,2.90
2022-07-26T05:20:57.450Z,2.25
2022-07-26T05:23:24.314Z,2.78
2022-07-26T05:25:51.160Z,2.30
2022-07-26T05:28:17.988Z,2.58
2022-07-26T05:30:45.141Z,2.50
2022-07-26T05:33:12.191Z,2.53
2022-07-26T05:35:43.734Z,2.20
2022-07-26T05:38:10.933Z,2.55
2022-07-26T05:40:37.863Z,2.13
2022-07-26T05:43:04.851Z,2.72
2022-07-26T05:45:31.887Z,2.15
2022-07-26T05:47:58.858Z,2.20
2022-07-26T05:50:25.685Z,2.40
2022-07-26T05:52:52.636Z,2.10
2022-07-26T05:55:19.709Z,2.03
2022-07-26T05:57:49.506Z,2.45
2022-07-26T06:00:17.544Z,2.03
2022-07-26T06:02:44.573Z,1.90
2022-07-26T06:05:11.487Z,2.92
2022-07-26T06:07:38.619Z,2.05
2022-07-26T06:10:06.135Z,2.00
2022-07-26T06:12:33.100Z,2.22
2022-07-26T06:14:59.885Z,1.90
2022-07-26T06:17:30.239Z,1.80
2022-07-26T06:19:58.191Z,2.03
2022-07-26T06:22:25.284Z,2.13
2022-07-26T06:24:52.391Z,2.20
2022-07-26T06:27:19.226Z,1.73
2022-07-26T06:29:48.466Z,1.52
2022-07-26T06:32:15.531Z,1.55
2022-07-26T06:34:42.454Z,1.88
2022-07-26T06:37:09.310Z,1.65
2022-07-26T06:39:36.216Z,2.00
2022-07-26T06:42:03.125Z,1.70
2022-07-26T06:44:29.979Z,1.40
2022-07-26T06:46:56.820Z,1.80
2022-07-26T06:49:23.778Z,1.48
2022-07-26T06:51:50.678Z,1.45
2022-07-26T06:54:18.757Z,1.55
2022-07-26T06:56:45.728Z,1.50
2022-07-26T06:59:12.573Z,1.40
2022-07-26T07:01:51.486Z,1.58
2022-07-26T07:04:26.397Z,1.50
2022-07-26T07:06:53.470Z,1.50
2022-07-26T07:09:22.120Z,1.60
2022-07-26T07:11:51.811Z,1.27
2022-07-26T07:14:25.639Z,1.60
2022-07-26T07:16:52.593Z,1.30
2022-07-26T07:19:19.484Z,1.40
2022-07-26T07:21:46.321Z,1.30
2022-07-26T07:24:13.181Z,1.58
2022-07-26T07:26:42.033Z,1.48
2022-07-26T07:29:14.567Z,1.13
2022-07-26T07:31:49.137Z,1.40
2022-07-26T07:34:19.571Z,1.20
2022-07-26T07:36:47.135Z,1.20
2022-07-26T07:39:17.607Z,1.10
2022-07-26T07:41:45.765Z,1.40
2022-07-26T07:44:12.803Z,1.20
2022-07-26T07:46:40.234Z,1.30
2022-07-26T07:49:07.708Z,1.08
2022-07-26T07:51:36.250Z,1.73
2022-07-26T07:54:05.886Z,1.40
2022-07-26T07:56:33.574Z,1.58
2022-07-26T07:59:00.762Z,1.20
2022-07-26T08:01:40.045Z,1.30
2022-07-26T08:04:09.113Z,1.15
2022-07-26T08:06:36.549Z,1.00
2022-07-26T08:09:05.517Z,1.17
2022-07-26T08:11:33.745Z,1.10
2022-07-26T08:14:01.624Z,1.30
2022-07-26T08:16:28.861Z,1.13
2022-07-26T08:18:57.824Z,1.13
2022-07-26T08:21:26.844Z,1.20
2022-07-26T08:23:57.268Z,1.40
2022-07-26T08:26:24.414Z,1.40
2022-07-26T08:28:55.140Z,1.40
2022-07-26T08:31:26.261Z,1.02
2022-07-26T08:33:53.141Z,1.48
2022-07-26T08:36:20.084Z,1.10
2022-07-26T08:38:47.932Z,1.10
2022-07-26T08:41:17.427Z,1.05
2022-07-26T08:46:24.713Z,1.10
2022-07-26T08:48:53.750Z,1.65
2022-07-26T08:51:23.787Z,1.10
2022-07-26T08:54:02.364Z,1.42
2022-07-26T08:56:36.292Z,1.40
2022-07-26T08:59:20.088Z,1.90
2022-07-26T09:01:52.935Z,1.38
2022-07-26T09:04:34.690Z,1.23
2022-07-26T09:07:07.694Z,1.15
2022-07-26T09:09:56.179Z,1.00
2022-07-26T09:12:24.857Z,1.20
2022-07-26T09:14:52.556Z,1.55
2022-07-26T09:17:21.696Z,1.00
2022-07-26T09:20:04.356Z,1.50
2022-07-26T09:22:31.352Z,1.27
2022-07-26T09:24:59.056Z,1.15
2022-07-26T09:27:35.853Z,1.27
2022-07-26T09:30:09.728Z,1.05
2022-07-26T09:32:36.923Z,1.20
2022-07-26T09:35:50.165Z,1.10
2022-07-26T09:38:15.848Z,1.10
2022-07-26T09:40:46.744Z,0.82
2022-07-26T09:43:19.705Z,0.75
2022-07-26T09:46:04.860Z,1.38
2022-07-26T09:48:52.075Z,1.25
2022-07-26T09:51:41.411Z,1.42
2022-07-26T09:54:11.187Z,1.02
2022-07-26T09:56:52.610Z,1.58
2022-07-26T09:59:24.157Z,1.20
2022-07-26T10:01:53.704Z,1.27
2022-07-26T10:04:21.545Z,1.35
2022-07-26T10:06:48.910Z,1.17
2022-07-26T10:09:16.202Z,1.40
2022-07-26T10:11:58.006Z,1.58
2022-07-26T10:14:47.917Z,1.40
2022-07-26T10:17:30.878Z,1.42
2022-07-26T10:20:01.929Z,1.33
2022-07-26T10:22:33.958Z,1.13
2022-07-26T10:25:19.393Z,1.38
2022-07-26T10:27:47.686Z,1.83
2022-07-26T10:30:20.989Z,1.60
2022-07-26T10:33:15.905Z,1.60
2022-07-26T10:35:43.609Z,1.20
2022-07-26T10:38:27.357Z,1.10
2022-07-26T10:40:59.441Z,1.33
2022-07-26T10:43:40.648Z,1.40
2022-07-26T10:46:18.112Z,1.67
2022-07-26T10:49:08.937Z,1.10
2022-07-26T10:51:38.264Z,1.30
2022-07-26T10:54:08.555Z,0.98
2022-07-26T10:56:35.964Z,1.42
2022-07-26T10:59:04.225Z,2.15
2022-07-26T11:01:43.157Z,1.30
2022-07-26T11:04:20.350Z,1.67
2022-07-26T11:06:48.104Z,1.88
2022-07-26T11:09:16.018Z,1.58
2022-07-26T11:11:46.657Z,1.42
2022-07-26T11:14:17.105Z,1.65
2022-07-26T11:16:47.419Z,1.60
2022-07-26T11:19:15.479Z,1.50
2022-07-26T11:21:43.609Z,1.33
2022-07-26T11:24:10.924Z,1.47
2022-07-26T11:26:46.894Z,1.90
2022-07-26T11:29:17.573Z,1.65
2022-07-26T11:31:50.900Z,1.90
2022-07-26T11:34:34.089Z,1.35
2022-07-26T11:37:03.709Z,1.58
2022-07-26T11:39:33.184Z,1.83
2022-07-26T11:42:05.641Z,1.75
2022-07-26T11:44:32.956Z,1.55
2022-07-26T11:47:00.451Z,1.30
2022-07-26T11:50:01.262Z,1.65
2022-07-26T11:52:21.284Z,1.77
2022-07-26T11:54:54.221Z,1.60
2022-07-26T11:57:21.174Z,2.15
2022-07-26T11:59:50.506Z,1.83
2022-07-26T12:02:17.611Z,1.83
2022-07-26T12:04:44.934Z,1.60
2022-07-26T12:07:18.699Z,2.58
2022-07-26T12:09:51.447Z,2.03
2022-07-26T12:12:32.978Z,2.40
2022-07-26T12:15:05.667Z,1.73
2022-07-26T12:17:35.760Z,3.10
2022-07-26T12:20:14.680Z,2.00
2022-07-26T12:22:41.926Z,2.10
2022-07-26T12:25:08.949Z,2.00
2022-07-26T12:27:46.436Z,1.75
2022-07-26T12:30:14.338Z,2.03
2022-07-26T12:32:43.478Z,2.63
2022-07-26T12:35:16.586Z,2.30
2022-07-26T12:37:46.470Z,2.13
2022-07-26T12:40:23.566Z,1.92
2022-07-26T12:42:50.449Z,3.28
2022-07-26T12:45:30.754Z,2.08
2022-07-26T12:47:59.459Z,2.20
2022-07-26T12:50:28.622Z,2.33
2022-07-26T12:53:09.046Z,2.42
2022-07-26T12:55:39.561Z,2.13
2022-07-26T12:58:06.435Z,2.10
2022-07-26T13:00:33.443Z,2.30
2022-07-26T13:03:00.344Z,2.05
2022-07-26T13:05:27.349Z,2.13
2022-07-26T13:07:55.526Z,2.55
2022-07-26T13:10:33.159Z,2.23
2022-07-26T13:13:00.919Z,2.03
2022-07-26T13:15:36.584Z,2.20
2022-07-26T13:18:05.576Z,2.03
2022-07-26T13:20:32.707Z,2.17
2022-07-26T13:22:59.597Z,2.13
2022-07-26T13:25:29.509Z,2.00
2022-07-26T13:28:05.825Z,2.15
2022-07-26T13:30:32.796Z,1.80
2022-07-26T13:32:59.769Z,2.40
2022-07-26T13:35:26.630Z,2.05
2022-07-26T13:37:53.499Z,1.77
2022-07-26T13:40:20.370Z,2.08
2022-07-26T13:42:50.049Z,2.17
2022-07-26T13:45:17.182Z,1.73
2022-07-26T13:47:44.071Z,1.70
2022-07-26T13:50:11.305Z,2.17
2022-07-26T13:52:38.392Z,2.42
2022-07-26T13:55:06.629Z,2.10
2022-07-26T13:57:39.168Z,2.03
2022-07-26T14:00:20.818Z,1.83
2022-07-26T14:02:47.907Z,1.70
2022-07-26T14:05:14.991Z,2.13
2022-07-26T14:07:43.534Z,1.92
2022-07-26T14:10:10.602Z,1.80
2022-07-26T14:12:38.259Z,1.60
2022-07-26T14:15:12.033Z,1.75
2022-07-26T14:17:41.282Z,2.20
2022-07-26T14:20:09.273Z,1.65
2022-07-26T14:22:36.144Z,1.52
2022-07-26T14:25:03.273Z,1.75
2022-07-26T14:27:30.147Z,2.17
2022-07-26T14:29:57.054Z,1.75
2022-07-26T14:32:24.044Z,1.50
2022-07-26T14:34:51.305Z,1.48
2022-07-26T14:37:41.674Z,1.48
2022-07-26T14:40:07.212Z,1.77
2022-07-26T14:42:34.538Z,1.67
2022-07-26T14:45:01.631Z,1.70
2022-07-26T14:47:28.498Z,1.40
2022-07-26T14:49:55.331Z,1.50
2022-07-26T14:52:22.403Z,1.65
2022-07-26T14:54:49.319Z,1.60
2022-07-26T14:57:16.294Z,1.63
2022-07-26T14:59:43.243Z,1.65
2022-07-26T15:02:11.963Z,1.60
2022-07-26T15:07:05.684Z,1.67
2022-07-26T15:09:32.584Z,1.60
2022-07-26T15:11:59.921Z,1.63
2022-07-26T15:14:26.848Z,1.67
2022-07-26T15:16:53.875Z,1.63
2022-07-26T15:19:25.371Z,1.60
2022-07-26T15:21:54.596Z,1.55
2022-07-26T15:26:51.451Z,1.65
2022-07-26T15:29:18.314Z,1.23
2022-07-26T15:31:47.265Z,1.27
2022-07-26T15:34:15.071Z,1.88
2022-07-26T15:36:42.311Z,1.60
2022-07-26T15:39:18.254Z,1.55
2022-07-26T15:41:47.563Z,1.20
2022-07-26T15:44:19.179Z,1.38
2022-07-26T15:46:47.989Z,1.45
2022-07-26T15:49:16.601Z,1.20
2022-07-26T15:51:43.751Z,1.40
2022-07-26T15:54:14.183Z,1.60
2022-07-26T15:56:42.302Z,1.77
2022-07-26T15:59:09.718Z,1.42
2022-07-26T16:01:37.023Z,1.70
2022-07-26T16:04:05.672Z,1.40
2022-07-26T16:06:33.509Z,1.60
2022-07-26T16:09:18.950Z,1.55
2022-07-26T16:11:47.674Z,1.33
2022-07-26T16:14:15.631Z,1.60
2022-07-26T16:16:42.958Z,1.33
2022-07-26T16:19:10.878Z,1.40
2022-07-26T16:21:38.702Z,1.35
2022-07-26T16:24:07.366Z,1.20
2022-07-26T16:26:35.514Z,1.48
2022-07-26T16:29:03.778Z,1.67
2022-07-26T16:33:57.704Z,1.40
2022-07-26T16:36:24.633Z,1.35
2022-07-26T16:38:51.520Z,1.40
2022-07-26T16:41:18.601Z,1.10
2022-07-26T16:43:45.923Z,1.70
2022-07-26T16:46:12.804Z,1.40
2022-07-26T16:48:39.869Z,1.40
2022-07-26T16:51:06.893Z,1.50
2022-07-26T16:53:33.905Z,1.48
2022-07-26T16:56:01.001Z,1.25
2022-07-26T16:58:27.869Z,1.17
2022-07-26T17:00:55.185Z,1.30
2022-07-26T17:03:22.228Z,1.20
2022-07-26T17:05:49.307Z,1.30
2022-07-26T17:08:16.186Z,1.25
2022-07-26T17:10:43.419Z,1.23
2022-07-26T17:13:10.287Z,1.70
2022-07-26T17:15:37.495Z,1.58
2022-07-26T17:18:04.498Z,1.55
2022-07-26T17:20:31.554Z,1.23
2022-07-26T17:22:58.485Z,1.45
2022-07-26T17:25:25.361Z,1.45
2022-07-26T17:27:52.188Z,1.20
2022-07-26T17:30:19.644Z,1.60
2022-07-26T17:32:46.827Z,1.20
2022-07-26T17:35:13.858Z,1.30
2022-07-26T17:37:40.755Z,1.27
2022-07-26T17:40:09.189Z,1.05
2022-07-26T17:42:37.143Z,1.70
2022-07-26T17:45:05.506Z,1.35
2022-07-26T17:47:32.741Z,1.23
2022-07-26T17:52:49.513Z,1.38
2022-07-26T17:55:18.574Z,1.20
2022-07-26T17:57:46.363Z,1.48
2022-07-26T18:00:13.855Z,1.20
2022-07-26T18:02:40.893Z,1.30
2022-07-26T18:05:08.505Z,1.17
2022-07-26T18:07:35.452Z,1.50
2022-07-26T18:10:02.462Z,1.45
2022-07-26T18:12:30.564Z,1.50
2022-07-26T18:14:57.833Z,1.55
2022-07-26T18:17:24.927Z,1.30
2022-07-26T18:19:51.905Z,1.10
2022-07-26T18:22:18.781Z,1.52
2022-07-26T18:24:45.634Z,1.30
2022-07-26T18:27:12.491Z,1.40
2022-07-26T18:29:39.366Z,1.40
2022-07-26T18:32:06.654Z,1.35
2022-07-26T18:34:33.578Z,1.45
2022-07-26T18:37:00.547Z,1.27
2022-07-26T18:39:32.556Z,1.40
2022-07-26T18:42:01.231Z,1.50
2022-07-26T18:44:28.096Z,1.30
2022-07-26T18:46:56.361Z,1.30
2022-07-26T18:49:30.694Z,1.45
2022-07-26T18:52:04.121Z,1.65
2022-07-26T18:54:35.226Z,1.20
2022-07-26T18:57:02.097Z,1.40
2022-07-26T18:59:29.817Z,1.25
2022-07-26T19:01:58.928Z,1.40
2022-07-26T19:04:26.123Z,1.40
2022-07-26T19:06:53.186Z,1.30
2022-07-26T19:09:20.132Z,1.70
2022-07-26T19:11:47.120Z,1.25
2022-07-26T19:14:14.132Z,1.35
2022-07-26T19:16:41.152Z,1.27
2022-07-26T19:19:07.982Z,1.17
2022-07-26T19:21:34.976Z,1.50
2022-07-26T19:24:02.001Z,1.67
2022-07-26T19:26:29.791Z,1.25
2022-07-26T19:28:57.033Z,1.35
2022-07-26T19:31:24.056Z,1.20
2022-07-26T19:33:50.981Z,1.58
2022-07-26T19:36:25.826Z,1.17
2022-07-26T19:38:54.378Z,1.20
2022-07-26T19:41:21.415Z,1.33
2022-07-26T19:43:48.276Z,1.17
2022-07-26T19:46:15.193Z,1.23
2022-07-26T19:48:42.260Z,1.30
2022-07-26T19:51:09.328Z,1.10
2022-07-26T19:53:36.262Z,1.30
2022-07-26T19:56:03.676Z,1.50
2022-07-26T19:58:30.858Z,1.13
2022-07-26T20:00:57.907Z,1.23
2022-07-26T20:03:25.044Z,1.10
2022-07-26T20:05:53.676Z,1.42
2022-07-26T20:08:21.122Z,1.17
2022-07-26T20:10:48.122Z,1.08
2022-07-26T20:13:15.386Z,1.05
2022-07-26T20:15:42.918Z,1.33
2022-07-26T20:18:10.604Z,1.10
2022-07-26T20:20:37.669Z,1.30
2022-07-26T20:23:06.101Z,1.30
2022-07-26T20:25:33.711Z,1.42
2022-07-26T20:28:00.667Z,1.60
2022-07-26T20:30:27.941Z,1.25
2022-07-26T20:32:54.983Z,1.10
2022-07-26T20:35:22.088Z,1.25
2022-07-26T20:37:49.022Z,1.30
2022-07-26T20:40:17.839Z,1.10
2022-07-26T20:45:14.532Z,1.00
2022-07-26T20:47:41.758Z,1.65
2022-07-26T20:50:09.875Z,1.58
2022-07-26T20:52:36.967Z,1.40
2022-07-26T20:55:04.315Z,1.30
2022-07-26T20:57:31.251Z,1.30
2022-07-26T20:59:58.100Z,1.60
2022-07-26T21:02:25.247Z,1.40
2022-07-26T21:04:52.485Z,1.60
2022-07-26T21:07:19.480Z,1.20
2022-07-26T21:09:46.369Z,1.85
2022-07-26T21:12:13.245Z,1.30
2022-07-26T21:14:40.059Z,1.40
2022-07-26T21:17:11.664Z,1.42
2022-07-26T21:19:39.565Z,1.38
2022-07-26T21:22:06.766Z,1.40
2022-07-26T21:24:35.204Z,1.23
2022-07-26T21:27:03.073Z,1.40
2022-07-26T21:29:30.040Z,1.75
2022-07-26T21:31:56.973Z,1.73
2022-07-26T21:34:26.673Z,1.98
2022-07-26T21:36:54.569Z,1.35
2022-07-26T21:39:21.418Z,1.45
2022-07-26T21:41:48.962Z,1.20
2022-07-26T21:44:15.974Z,1.30
2022-07-26T21:46:48.551Z,1.38
2022-07-26T21:49:18.359Z,1.50
2022-07-26T21:51:45.410Z,1.10
2022-07-26T21:54:12.260Z,1.38
2022-07-26T21:56:39.177Z,1.30
2022-07-26T21:59:06.054Z,1.10
2022-07-26T22:01:33.189Z,1.27
2022-07-26T22:04:00.106Z,1.40
2022-07-26T22:06:27.013Z,1.30
2022-07-26T22:08:53.909Z,1.40
2022-07-26T22:11:20.953Z,1.30
2022-07-26T22:13:47.820Z,1.33
2022-07-26T22:16:14.756Z,1.33
2022-07-26T22:18:41.742Z,1.42
2022-07-26T22:21:08.599Z,1.45
2022-07-26T22:23:35.530Z,1.73
2022-07-26T22:26:04.371Z,1.80
2022-07-26T22:28:33.368Z,1.30
2022-07-26T22:31:00.875Z,1.30
2022-07-26T22:33:27.697Z,1.40
2022-07-26T22:35:54.589Z,1.20
2022-07-26T22:38:21.683Z,1.30
2022-07-26T22:40:48.545Z,1.17
2022-07-26T22:43:15.549Z,1.48
2022-07-26T22:45:42.702Z,1.48
2022-07-26T22:48:09.675Z,1.88
2022-07-26T22:50:36.560Z,1.40
2022-07-26T22:53:04.011Z,1.20
2022-07-26T22:55:31.116Z,1.77
2022-07-26T22:57:58.191Z,1.80
2022-07-26T23:00:25.404Z,1.60
2022-07-26T23:02:52.349Z,1.35
2022-07-26T23:05:19.978Z,1.65
2022-07-26T23:07:48.614Z,1.63
2022-07-26T23:10:16.778Z,1.67
2022-07-26T23:12:43.885Z,1.70
2022-07-26T23:15:11.242Z,1.60
2022-07-26T23:17:38.589Z,1.30
2022-07-26T23:20:07.292Z,1.27
2022-07-26T23:22:34.626Z,1.15
2022-07-26T23:25:01.692Z,1.48
2022-07-26T23:27:28.549Z,1.50
2022-07-26T23:29:55.498Z,1.42
2022-07-26T23:32:22.457Z,2.08
2022-07-26T23:34:49.347Z,1.83
2022-07-26T23:37:16.373Z,1.90
2022-07-26T23:39:43.251Z,1.40
2022-07-26T23:42:10.178Z,2.08
2022-07-26T23:44:37.049Z,1.33
2022-07-26T23:47:04.396Z,1.77
2022-07-26T23:49:31.378Z,1.60
2022-07-26T23:51:58.323Z,1.50
2022-07-26T23:54:25.280Z,1.50
2022-07-26T23:56:52.235Z,1.50
2022-07-26T23:59:19.164Z,1.70
